createdAt,value
2022-08-17T00:12:41.879Z,99164.25
2022-08-17T00:15:10.870Z,99159.62
2022-08-17T00:17:38.059Z,99154.28
2022-08-17T00:20:05.673Z,99162.66
2022-08-17T00:22:36.391Z,99164.13
2022-08-17T00:25:15.833Z,99159.41
2022-08-17T00:27:43.295Z,99168.97
2022-08-17T00:30:11.139Z,99164.28
2022-08-17T00:33:12.501Z,99165.72
2022-08-17T00:35:27.884Z,99158.91
2022-08-17T00:37:55.440Z,99163.37
2022-08-17T00:40:24.795Z,99161.50
2022-08-17T00:42:53.442Z,99155.31
2022-08-17T00:45:20.727Z,99166.12
2022-08-17T00:47:48.035Z,99165.94
2022-08-17T00:50:16.057Z,99166.53
2022-08-17T00:52:50.319Z,99168.50
2022-08-17T00:55:18.336Z,99172.09
2022-08-17T00:57:46.951Z,99165.41
2022-08-17T01:00:34.524Z,99162.31
2022-08-17T01:03:07.693Z,99171.50
2022-08-17T01:05:38.321Z,99173.22
2022-08-17T01:08:11.290Z,99168.56
2022-08-17T01:10:58.625Z,99172.88
2022-08-17T01:13:42.800Z,99178.22
2022-08-17T01:16:17.406Z,99182.62
2022-08-17T01:18:46.096Z,99184.56
2022-08-17T01:21:20.475Z,99189.94
2022-08-17T01:23:47.910Z,99189.25
2022-08-17T01:26:15.110Z,99187.31
2022-08-17T01:28:55.058Z,99185.50
2022-08-17T01:31:24.626Z,99179.75
2022-08-17T01:33:51.790Z,99180.59
2022-08-17T01:36:18.995Z,99192.47
2022-08-17T01:38:46.447Z,99185.50
2022-08-17T01:41:14.190Z,99185.00
2022-08-17T01:43:46.006Z,99190.34
2022-08-17T01:46:18.714Z,99199.16
2022-08-17T01:48:47.584Z,99189.91
2022-08-17T01:51:15.743Z,99193.16
2022-08-17T01:53:45.525Z,99200.75
2022-08-17T01:56:13.463Z,99192.13
2022-08-17T01:58:41.283Z,99195.69
2022-08-17T02:01:09.901Z,99185.75
2022-08-17T02:03:37.796Z,99193.84
2022-08-17T02:06:05.937Z,99192.47
2022-08-17T02:09:02.835Z,99191.53
2022-08-17T02:11:32.298Z,99184.13
2022-08-17T02:14:03.262Z,99186.47
2022-08-17T02:16:37.601Z,99187.38
2022-08-17T02:19:12.987Z,99183.38
2022-08-17T02:21:40.574Z,99181.06
2022-08-17T02:24:08.820Z,99181.72
2022-08-17T02:26:36.011Z,99173.88
2022-08-17T02:29:04.252Z,99179.66
2022-08-17T02:31:31.776Z,99179.16
2022-08-17T02:34:03.972Z,99177.91
2022-08-17T02:36:35.735Z,99179.06
2022-08-17T02:39:04.387Z,99183.94
2022-08-17T02:41:31.567Z,99183.59
2022-08-17T02:43:59.012Z,99185.87
2022-08-17T02:46:26.200Z,99173.50
2022-08-17T02:48:53.398Z,99177.41
2022-08-17T02:51:20.852Z,99175.34
2022-08-17T02:53:48.046Z,99181.59
2022-08-17T02:56:15.214Z,99173.47
2022-08-17T02:58:42.660Z,99175.56
2022-08-17T03:01:10.302Z,99185.16
2022-08-17T03:03:37.642Z,99188.97
2022-08-17T03:06:05.266Z,99185.16
2022-08-17T03:08:32.438Z,99188.75
2022-08-17T03:10:59.770Z,99191.03
2022-08-17T03:13:27.589Z,99185.84
2022-08-17T03:15:54.773Z,99190.69
2022-08-17T03:18:25.637Z,99188.25
2022-08-17T03:20:54.811Z,99197.34
2022-08-17T03:23:23.974Z,99194.25
2022-08-17T03:25:52.847Z,99184.53
2022-08-17T03:28:21.378Z,99187.97
2022-08-17T03:30:48.847Z,99192.56
2022-08-17T03:33:17.003Z,99191.03
2022-08-17T03:35:44.499Z,99190.94
2022-08-17T03:38:12.121Z,99190.50
2022-08-17T03:40:59.085Z,99189.59
2022-08-17T03:43:28.055Z,99194.78
2022-08-17T03:46:34.476Z,99193.75
2022-08-17T03:49:19.627Z,99201.37
2022-08-17T03:52:05.393Z,99201.09
2022-08-17T03:54:51.544Z,99207.75
2022-08-17T03:57:19.355Z,99208.28
2022-08-17T03:59:47.655Z,99208.25
2022-08-17T04:02:28.948Z,99206.66
2022-08-17T04:04:56.498Z,99210.75
2022-08-17T04:07:25.214Z,99207.31
2022-08-17T04:09:52.356Z,99210.72
2022-08-17T04:12:20.702Z,99209.69
2022-08-17T04:14:53.562Z,99220.31
2022-08-17T04:17:22.523Z,99221.53
2022-08-17T04:19:49.674Z,99221.69
2022-08-17T04:22:32.343Z,99220.44
2022-08-17T04:25:10.045Z,99219.34
2022-08-17T04:27:37.210Z,99225.19
2022-08-17T04:30:06.919Z,99225.47
2022-08-17T04:33:04.504Z,99232.81
2022-08-17T04:35:44.168Z,99232.66
2022-08-17T04:38:12.658Z,99229.56
2022-08-17T04:40:58.654Z,99233.69
2022-08-17T04:43:26.386Z,99228.78
2022-08-17T04:45:56.856Z,99231.78
2022-08-17T04:48:29.955Z,99227.56
2022-08-17T04:51:04.683Z,99231.00
2022-08-17T04:53:31.895Z,99232.84
2022-08-17T04:55:59.214Z,99241.81
2022-08-17T04:58:26.675Z,99241.22
2022-08-17T05:00:53.864Z,99236.81
2022-08-17T05:03:21.057Z,99237.00
2022-08-17T05:05:49.929Z,99245.41
2022-08-17T05:08:18.632Z,99243.56
2022-08-17T05:10:45.954Z,99248.56
2022-08-17T05:13:18.558Z,99257.28
2022-08-17T05:15:47.582Z,99262.78
2022-08-17T05:18:15.815Z,99261.41
2022-08-17T05:20:42.989Z,99265.81
2022-08-17T05:23:11.549Z,99259.84
2022-08-17T05:25:40.597Z,99262.44
2022-08-17T05:28:08.734Z,99255.53
2022-08-17T05:30:38.069Z,99260.84
2022-08-17T05:33:06.862Z,99260.56
2022-08-17T05:35:35.343Z,99259.50
2022-08-17T05:38:02.511Z,99261.50
2022-08-17T05:40:32.934Z,99262.78
2022-08-17T05:43:12.470Z,99258.56
2022-08-17T05:45:56.068Z,99265.22
2022-08-17T05:48:39.413Z,99267.47
2022-08-17T05:51:10.447Z,99267.09
2022-08-17T05:53:40.179Z,99272.56
2022-08-17T05:56:22.707Z,99274.53
2022-08-17T05:59:11.410Z,99267.00
2022-08-17T06:01:53.896Z,99275.00
2022-08-17T06:04:26.275Z,99268.03
2022-08-17T06:06:53.442Z,99268.81
2022-08-17T06:09:33.005Z,99273.31
2022-08-17T06:12:33.428Z,99268.06
2022-08-17T06:15:16.476Z,99265.75
2022-08-17T06:17:43.641Z,99265.38
2022-08-17T06:20:12.303Z,99267.47
2022-08-17T06:22:44.529Z,99267.06
2022-08-17T06:25:19.432Z,99271.16
2022-08-17T06:27:53.673Z,99269.78
2022-08-17T06:30:22.341Z,99267.03
2022-08-17T06:32:50.120Z,99267.44
2022-08-17T06:35:32.095Z,99266.16
2022-08-17T06:38:04.677Z,99276.41
2022-08-17T06:40:36.869Z,99287.88
2022-08-17T06:43:17.449Z,99279.41
2022-08-17T06:45:54.238Z,99288.66
2022-08-17T06:48:25.622Z,99287.34
2022-08-17T06:51:12.194Z,99290.63
2022-08-17T06:53:44.502Z,99294.66
2022-08-17T06:56:13.689Z,99288.28
2022-08-17T06:58:42.068Z,99287.41
2022-08-17T07:01:14.926Z,99288.53
2022-08-17T07:04:18.272Z,99298.16
2022-08-17T07:06:52.502Z,99293.06
2022-08-17T07:09:23.436Z,99284.22
2022-08-17T07:11:59.302Z,99280.94
2022-08-17T07:14:53.006Z,99288.22
2022-08-17T07:17:21.126Z,99287.50
2022-08-17T07:20:12.917Z,99285.41
2022-08-17T07:22:50.312Z,99288.34
2022-08-17T07:25:27.536Z,99289.16
2022-08-17T07:27:56.337Z,99291.44
2022-08-17T07:30:24.965Z,99291.84
2022-08-17T07:32:53.751Z,99287.06
2022-08-17T07:35:23.108Z,99288.53
2022-08-17T07:38:28.454Z,99288.03
2022-08-17T07:41:05.393Z,99288.25
2022-08-17T07:43:39.028Z,99292.13
2022-08-17T07:46:31.121Z,99289.59
2022-08-17T07:49:16.113Z,99285.00
2022-08-17T07:51:43.272Z,99293.91
2022-08-17T07:54:22.585Z,99292.78
2022-08-17T07:56:49.916Z,99295.72
2022-08-17T07:59:24.584Z,99294.88
2022-08-17T08:01:56.774Z,99292.75
2022-08-17T08:04:59.151Z,99298.66
2022-08-17T08:07:25.289Z,99296.84
2022-08-17T08:09:58.827Z,99295.34
2022-08-17T08:12:33.801Z,99296.72
2022-08-17T08:15:01.801Z,99290.53
2022-08-17T08:17:35.712Z,99290.25
2022-08-17T08:20:52.699Z,99286.47
2022-08-17T08:23:08.080Z,99288.38
2022-08-17T08:25:53.629Z,99296.62
2022-08-17T08:28:39.071Z,99288.84
2022-08-17T08:31:21.856Z,99287.16
2022-08-17T08:33:49.155Z,99281.34
2022-08-17T08:36:56.979Z,99286.94
2022-08-17T08:39:08.924Z,99295.84
2022-08-17T08:41:38.972Z,99293.72
2022-08-17T08:44:18.625Z,99288.31
2022-08-17T08:47:09.136Z,99289.09
2022-08-17T08:52:30.960Z,99285.31
2022-08-17T08:55:00.918Z,99285.75
2022-08-17T08:57:34.279Z,99287.34
2022-08-17T09:00:06.459Z,99281.94
2022-08-17T09:02:34.890Z,99285.44
2022-08-17T09:05:21.791Z,99286.34
2022-08-17T09:07:57.386Z,99282.22
2022-08-17T09:10:31.279Z,99290.16
2022-08-17T09:13:15.697Z,99278.69
2022-08-17T09:15:45.613Z,99293.16
2022-08-17T09:19:00.743Z,99293.66
2022-08-17T09:21:04.195Z,99291.59
2022-08-17T09:23:42.540Z,99289.03
2022-08-17T09:26:12.359Z,99289.28
2022-08-17T09:28:40.346Z,99297.81
2022-08-17T09:31:11.886Z,99286.03
2022-08-17T09:33:43.707Z,99290.41
2022-08-17T09:36:25.645Z,99290.16
2022-08-17T09:39:03.830Z,99289.34
2022-08-17T09:41:37.847Z,99286.59
2022-08-17T09:44:23.593Z,99287.16
2022-08-17T09:46:52.792Z,99283.41
2022-08-17T09:49:26.362Z,99273.38
2022-08-17T09:52:04.040Z,99281.75
2022-08-17T09:54:39.119Z,99278.19
2022-08-17T09:57:28.530Z,99274.09
2022-08-17T10:00:15.730Z,99281.09
2022-08-17T10:03:05.498Z,99274.00
2022-08-17T10:05:51.329Z,99282.63
2022-08-17T10:08:44.674Z,99283.19
2022-08-17T10:11:50.462Z,99284.81
2022-08-17T10:14:36.382Z,99280.91
2022-08-17T10:17:05.615Z,99277.16
2022-08-17T10:19:32.984Z,99288.69
2022-08-17T10:22:34.693Z,99278.81
2022-08-17T10:25:24.825Z,99279.06
2022-08-17T10:28:01.665Z,99277.69
2022-08-17T10:30:29.996Z,99278.44
2022-08-17T10:32:57.194Z,99275.19
2022-08-17T10:35:36.619Z,99270.00
2022-08-17T10:38:24.676Z,99271.09
2022-08-17T10:40:57.454Z,99267.66
2022-08-17T10:43:34.328Z,99266.78
2022-08-17T10:46:26.475Z,99270.44
2022-08-17T10:49:11.086Z,99272.84
2022-08-17T10:51:38.962Z,99270.22
2022-08-17T10:54:06.753Z,99273.56
2022-08-17T10:56:51.018Z,99268.53
2022-08-17T10:59:47.156Z,99256.88
2022-08-17T11:02:14.272Z,99252.63
2022-08-17T11:05:06.231Z,99253.16
2022-08-17T11:07:39.696Z,99251.09
2022-08-17T11:10:23.697Z,99251.94
2022-08-17T11:12:54.326Z,99242.44
2022-08-17T11:15:33.928Z,99252.75
2022-08-17T11:18:01.541Z,99258.50
2022-08-17T11:20:38.720Z,99257.75
2022-08-17T11:23:20.923Z,99249.22
2022-08-17T11:25:52.394Z,99245.28
2022-08-17T11:28:23.071Z,99242.38
2022-08-17T11:30:54.634Z,99237.28
2022-08-17T11:33:38.185Z,99237.91
2022-08-17T11:36:06.414Z,99234.59
2022-08-17T11:38:48.638Z,99229.13
2022-08-17T11:41:34.833Z,99233.69
2022-08-17T11:44:07.878Z,99230.03
2022-08-17T11:46:56.926Z,99236.50
2022-08-17T11:50:01.671Z,99231.41
2022-08-17T11:52:35.505Z,99228.28
2022-08-17T11:55:24.124Z,99225.91
2022-08-17T11:57:54.803Z,99227.47
2022-08-17T12:00:40.057Z,99215.00
2022-08-17T12:03:26.598Z,99211.88
2022-08-17T12:06:17.653Z,99207.63
2022-08-17T12:08:51.569Z,99209.50
2022-08-17T12:11:58.650Z,99215.56
2022-08-17T12:14:51.696Z,99217.06
2022-08-17T12:17:39.421Z,99209.44
2022-08-17T12:20:29.348Z,99208.75
2022-08-17T12:23:14.918Z,99201.94
2022-08-17T12:25:43.685Z,99199.56
2022-08-17T12:28:22.859Z,99207.75
2022-08-17T12:30:52.161Z,99197.91
2022-08-17T12:33:25.341Z,99191.38
2022-08-17T12:36:06.177Z,99193.59
2022-08-17T12:38:34.679Z,99196.34
2022-08-17T12:41:21.802Z,99201.41
2022-08-17T12:44:03.254Z,99198.94
2022-08-17T12:46:40.879Z,99194.41
2022-08-17T12:49:25.189Z,99202.69
2022-08-17T12:51:54.164Z,99191.06
2022-08-17T12:54:35.136Z,99196.53
2022-08-17T12:57:05.395Z,99188.13
2022-08-17T12:59:35.391Z,99194.91
2022-08-17T13:02:02.920Z,99201.13
2022-08-17T13:04:30.150Z,99200.41
2022-08-17T13:07:00.321Z,99203.84
2022-08-17T13:09:35.554Z,99200.81
2022-08-17T13:12:05.106Z,99193.13
2022-08-17T13:14:33.479Z,99182.41
2022-08-17T13:17:01.792Z,99184.34
2022-08-17T13:19:40.663Z,99177.34
2022-08-17T13:22:10.296Z,99184.94
2022-08-17T13:24:38.167Z,99190.34
2022-08-17T13:27:10.247Z,99192.72
2022-08-17T13:29:51.307Z,99188.28
2022-08-17T13:32:24.026Z,99183.63
2022-08-17T13:35:14.085Z,99172.13
2022-08-17T13:37:55.799Z,99177.41
2022-08-17T13:40:23.146Z,99176.19
2022-08-17T13:42:54.387Z,99182.41
2022-08-17T13:45:39.307Z,99178.03
2022-08-17T13:48:07.887Z,99169.97
2022-08-17T13:50:39.015Z,99179.69
2022-08-17T13:53:20.094Z,99174.69
2022-08-17T13:55:48.417Z,99174.16
2022-08-17T13:58:19.724Z,99176.47
2022-08-17T14:00:46.884Z,99171.59
2022-08-17T14:03:15.316Z,99170.78
2022-08-17T14:05:42.568Z,99164.84
2022-08-17T14:08:10.929Z,99168.78
2022-08-17T14:10:38.363Z,99172.06
2022-08-17T14:13:06.010Z,99159.38
2022-08-17T14:15:54.778Z,99156.22
2022-08-17T14:18:55.426Z,99154.13
2022-08-17T14:21:09.210Z,99162.44
2022-08-17T14:23:36.940Z,99151.47
2022-08-17T14:26:04.659Z,99154.66
2022-08-17T14:28:32.087Z,99162.87
2022-08-17T14:31:00.767Z,99155.47
2022-08-17T14:33:28.303Z,99160.59
2022-08-17T14:35:57.526Z,99154.03
2022-08-17T14:38:24.993Z,99155.28
2022-08-17T14:40:52.179Z,99159.78
2022-08-17T14:43:21.038Z,99156.78
2022-08-17T14:45:48.465Z,99168.03
2022-08-17T14:48:15.931Z,99156.84
2022-08-17T14:50:43.242Z,99154.44
2022-08-17T14:53:11.389Z,99147.22
2022-08-17T14:55:40.485Z,99147.94
2022-08-17T14:58:08.799Z,99149.31
2022-08-17T15:00:36.292Z,99150.72
2022-08-17T15:03:03.522Z,99143.28
2022-08-17T15:05:32.043Z,99136.84
2022-08-17T15:08:00.989Z,99144.69
2022-08-17T15:10:29.326Z,99146.75
2022-08-17T15:12:56.722Z,99141.81
2022-08-17T15:15:24.225Z,99144.00
2022-08-17T15:17:51.701Z,99140.72
2022-08-17T15:20:20.804Z,99141.97
2022-08-17T15:22:55.180Z,99146.81
2022-08-17T15:25:23.014Z,99151.28
2022-08-17T15:27:50.521Z,99149.09
2022-08-17T15:30:17.983Z,99150.62
2022-08-17T15:32:50.954Z,99150.00
2022-08-17T15:35:27.466Z,99147.56
2022-08-17T15:38:03.544Z,99143.31
2022-08-17T15:40:36.965Z,99144.38
2022-08-17T15:43:08.045Z,99144.28
2022-08-17T15:45:35.503Z,99147.59
2022-08-17T15:48:02.725Z,99145.63
2022-08-17T15:50:29.916Z,99141.13
2022-08-17T15:52:58.251Z,99157.88
2022-08-17T15:55:26.105Z,99151.66
2022-08-17T15:57:53.436Z,99157.28
2022-08-17T16:00:23.585Z,99146.94
2022-08-17T16:03:16.068Z,99153.88
2022-08-17T16:05:38.274Z,99150.22
2022-08-17T16:08:08.248Z,99154.06
2022-08-17T16:10:36.106Z,99151.12
2022-08-17T16:13:03.809Z,99148.16
2022-08-17T16:15:31.728Z,99154.94
2022-08-17T16:17:59.243Z,99146.94
2022-08-17T16:20:26.397Z,99143.69
2022-08-17T16:22:54.512Z,99142.34
2022-08-17T16:25:23.690Z,99145.13
2022-08-17T16:28:11.233Z,99144.72
2022-08-17T16:30:38.590Z,99142.91
2022-08-17T16:33:05.866Z,99138.78
2022-08-17T16:35:33.345Z,99143.88
2022-08-17T16:38:00.583Z,99143.47
2022-08-17T16:40:28.617Z,99137.06
2022-08-17T16:42:57.748Z,99136.19
2022-08-17T16:45:26.905Z,99126.00
2022-08-17T16:47:54.841Z,99131.87
2022-08-17T16:50:23.106Z,99131.16
2022-08-17T16:52:50.633Z,99141.91
2022-08-17T16:55:18.778Z,99135.28
2022-08-17T16:57:50.000Z,99140.34
2022-08-17T17:00:19.218Z,99140.06
2022-08-17T17:02:47.531Z,99145.38
2022-08-17T17:05:41.328Z,99141.06
2022-08-17T17:08:09.038Z,99136.66
2022-08-17T17:10:40.781Z,99142.41
2022-08-17T17:13:09.072Z,99144.31
2022-08-17T17:15:46.395Z,99143.34
2022-08-17T17:18:15.286Z,99146.94
2022-08-17T17:20:45.869Z,99148.22
2022-08-17T17:23:21.144Z,99151.59
2022-08-17T17:25:52.289Z,99150.13
2022-08-17T17:28:31.780Z,99152.75
2022-08-17T17:31:16.921Z,99159.88
2022-08-17T17:33:52.610Z,99171.09
2022-08-17T17:36:21.811Z,99155.97
2022-08-17T17:38:50.107Z,99155.66
2022-08-17T17:41:25.855Z,99168.72
2022-08-17T17:43:56.635Z,99164.69
2022-08-17T17:46:30.754Z,99168.16
2022-08-17T17:48:58.276Z,99164.16
2022-08-17T17:52:08.873Z,99174.25
2022-08-17T17:54:25.144Z,99187.06
2022-08-17T17:57:15.674Z,99177.37
2022-08-17T17:59:58.377Z,99180.34
2022-08-17T18:02:53.102Z,99192.56
2022-08-17T18:05:39.188Z,99183.88
2022-08-17T18:08:32.388Z,99192.66
2022-08-17T18:11:07.457Z,99188.75
2022-08-17T18:13:50.158Z,99192.81
2022-08-17T18:16:19.347Z,99195.75
2022-08-17T18:18:46.952Z,99201.47
2022-08-17T18:21:19.426Z,99207.50
2022-08-17T18:23:57.395Z,99210.31
2022-08-17T18:26:40.224Z,99212.00
2022-08-17T18:29:24.492Z,99215.75
2022-08-17T18:32:10.390Z,99214.16
2022-08-17T18:34:47.195Z,99216.97
2022-08-17T18:37:27.765Z,99216.59
2022-08-17T18:39:55.292Z,99224.59
2022-08-17T18:42:24.426Z,99222.97
2022-08-17T18:44:54.949Z,99216.97
2022-08-17T18:47:26.816Z,99224.06
2022-08-17T18:49:57.645Z,99231.28
2022-08-17T18:52:27.863Z,99228.94
2022-08-17T18:55:14.384Z,99224.94
2022-08-17T18:57:42.567Z,99232.91
2022-08-17T19:00:11.080Z,99235.31
2022-08-17T19:02:48.728Z,99232.06
2022-08-17T19:05:31.334Z,99224.78
2022-08-17T19:08:24.800Z,99229.31
2022-08-17T19:11:02.722Z,99226.47
2022-08-17T19:13:45.972Z,99232.78
2022-08-17T19:16:17.712Z,99232.56
2022-08-17T19:18:54.163Z,99230.25
2022-08-17T19:21:23.223Z,99234.03
2022-08-17T19:24:13.642Z,99236.16
2022-08-17T19:26:53.539Z,99237.09
2022-08-17T19:29:22.985Z,99240.28
2022-08-17T19:31:50.453Z,99242.06
2022-08-17T19:34:29.944Z,99242.09
2022-08-17T19:37:21.635Z,99239.69
2022-08-17T19:39:48.833Z,99245.59
2022-08-17T19:42:16.324Z,99246.69
2022-08-17T19:45:09.974Z,99242.03
2022-08-17T19:47:54.174Z,99243.50
2022-08-17T19:50:44.082Z,99245.19
2022-08-17T19:53:14.913Z,99239.47
2022-08-17T19:56:01.225Z,99239.81
2022-08-17T19:58:34.454Z,99240.31
2022-08-17T20:01:01.713Z,99245.81
2022-08-17T20:03:35.238Z,99241.34
2022-08-17T20:06:18.325Z,99238.13
2022-08-17T20:08:49.520Z,99238.53
2022-08-17T20:11:41.597Z,99237.91
2022-08-17T20:14:14.300Z,99238.09
2022-08-17T20:16:41.767Z,99231.81
2022-08-17T20:19:17.402Z,99228.81
2022-08-17T20:21:46.420Z,99235.88
2022-08-17T20:24:13.775Z,99239.34
2022-08-17T20:26:40.859Z,99235.34
2022-08-17T20:29:19.151Z,99234.09
2022-08-17T20:32:07.456Z,99233.66
2022-08-17T20:34:37.765Z,99232.03
2022-08-17T20:37:14.593Z,99232.25
2022-08-17T20:40:02.316Z,99230.75
2022-08-17T20:42:30.573Z,99233.53
2022-08-17T20:44:59.292Z,99223.84
2022-08-17T20:47:34.248Z,99226.97
2022-08-17T20:50:06.929Z,99223.25
2022-08-17T20:52:41.249Z,99229.53
2022-08-17T20:55:09.539Z,99221.84
2022-08-17T20:57:36.697Z,99220.16
2022-08-17T21:00:14.260Z,99215.78
2022-08-17T21:02:50.963Z,99223.81
2022-08-17T21:05:37.022Z,99227.12
2022-08-17T21:08:17.267Z,99225.94
2022-08-17T21:10:46.427Z,99228.00
2022-08-17T21:13:15.292Z,99225.50
2022-08-17T21:15:57.496Z,99229.84
2022-08-17T21:18:30.037Z,99220.19
2022-08-17T21:20:57.147Z,99222.41
2022-08-17T21:23:33.698Z,99227.72
2022-08-17T21:26:06.680Z,99228.94
2022-08-17T21:29:00.670Z,99231.34
2022-08-17T21:31:30.357Z,99232.06
2022-08-17T21:34:16.984Z,99240.06
2022-08-17T21:36:44.492Z,99244.00
2022-08-17T21:39:13.594Z,99236.34
2022-08-17T21:41:46.053Z,99238.37
2022-08-17T21:44:21.555Z,99236.72
2022-08-17T21:46:50.217Z,99235.53
2022-08-17T21:49:19.771Z,99245.25
2022-08-17T21:51:49.894Z,99233.63
2022-08-17T21:54:28.387Z,99235.97
2022-08-17T21:56:55.594Z,99243.16
2022-08-17T21:59:27.442Z,99248.50
2022-08-17T22:01:56.020Z,99252.44
2022-08-17T22:04:28.898Z,99261.19
2022-08-17T22:06:57.202Z,99264.84
2022-08-17T22:09:26.553Z,99269.09
2022-08-17T22:11:55.214Z,99266.63
2022-08-17T22:14:27.004Z,99264.63
2022-08-17T22:17:25.101Z,99265.12
2022-08-17T22:19:56.879Z,99276.91
2022-08-17T22:22:32.450Z,99271.91
2022-08-17T22:25:01.442Z,99276.09
2022-08-17T22:27:48.576Z,99276.44
2022-08-17T22:30:22.181Z,99275.28
2022-08-17T22:32:49.882Z,99282.59
2022-08-17T22:35:29.276Z,99278.34
2022-08-17T22:37:56.918Z,99287.81
2022-08-17T22:40:31.326Z,99284.03
2022-08-17T22:42:59.066Z,99285.66
2022-08-17T22:45:26.341Z,99285.91
2022-08-17T22:47:54.335Z,99293.72
2022-08-17T22:50:23.112Z,99283.78
2022-08-17T22:53:16.665Z,99286.25
2022-08-17T22:56:13.166Z,99291.09
2022-08-17T22:59:13.419Z,99292.75
2022-08-17T23:01:41.138Z,99304.66
2022-08-17T23:04:10.019Z,99313.13
2022-08-17T23:06:38.015Z,99302.72
2022-08-17T23:09:06.081Z,99295.66
2022-08-17T23:11:48.754Z,99304.91
2022-08-17T23:14:19.180Z,99308.53
2022-08-17T23:16:46.908Z,99319.06
2022-08-17T23:19:15.448Z,99312.03
2022-08-17T23:21:44.851Z,99317.19
2022-08-17T23:24:14.568Z,99313.00
2022-08-17T23:26:41.742Z,99322.19
2022-08-17T23:29:09.456Z,99331.91
2022-08-17T23:31:36.931Z,99330.59
2022-08-17T23:34:04.653Z,99320.75
2022-08-17T23:36:33.315Z,99309.72
2022-08-17T23:39:00.482Z,99320.69
2022-08-17T23:41:28.170Z,99317.63
2022-08-17T23:43:55.547Z,99312.56
2022-08-17T23:46:24.547Z,99305.03
2022-08-17T23:48:54.798Z,99298.41
2022-08-17T23:51:25.737Z,99291.63
2022-08-17T23:53:54.398Z,99295.94
2022-08-17T23:56:26.094Z,99302.34
2022-08-17T23:58:54.804Z,99302.69
